Terminal Aerodrome Forecast
Issued by NWS Buffalo, NY

Current Version | Previous Version | Text Only | Print | Product List | Glossary On
Versions: 1 2 3 4 5 6 7 8 9 10 11 12 13 14 15 16 17 18 19 20 21 22 23 24 25 26 27
000
FTUS41 KBUF 181100
TAFBUF
TAF
KBUF 181139Z 1812/1912 00000KT P6SM SCT040 BKN090
     FM181430 36006KT P6SM SCT007 BKN015
     FM181700 03010KT P6SM BKN015
     FM182200 04007KT P6SM SCT025 BKN040
     FM190100 05004KT P6SM SCT200
     FM190600 12004KT P6SM FEW250=

USA.gov is the U.S. government's official web portal to all federal, state and local government web resources and services.